Time;durP1;ratioP1;P1;durP2;ratioP2;P2;SDS_P1;SDS_P2;PMS_P1;PMS_P2;Temp;Humidity;BMP_temperature;BMP_pressure;BME280_temperature;BME280_humidity;BME280_pressure;Samples;Min_cycle;Max_cycle;Signal;HPM_P1;HPM_P2
2023/04/18 00:01:49;;;;;;;;;;;13.30;45.80;;;;;;5032290;28;19995;-58
2023/04/18 00:04:16;;;;;;;;;;;13.30;45.90;;;;;;5031815;28;19955;-58
2023/04/18 00:06:42;;;;;;;;;;;13.40;45.90;;;;;;5031732;28;19913;-58
2023/04/18 00:09:07;;;;;;;;;;;13.40;45.90;;;;;;5032195;28;19962;-58
2023/04/18 00:11:33;;;;;;;;;;;13.50;45.90;;;;;;5031905;28;20399;-58
2023/04/18 00:13:59;;;;;;;;;;;13.50;45.80;;;;;;5032021;28;19928;-58
2023/04/18 00:16:26;;;;;;;;;;;13.60;45.70;;;;;;5032088;28;20353;-62
2023/04/18 00:18:52;;;;;;;;;;;13.60;45.70;;;;;;5031366;28;19925;-59
2023/04/18 00:21:17;;;;;;;;;;;13.60;45.70;;;;;;5031576;28;20028;-58
2023/04/18 00:23:44;;;;;;;;;;;13.70;45.70;;;;;;5030289;28;19936;-58
2023/04/18 00:26:10;;;;;;;;;;;13.60;45.70;;;;;;5036300;28;19925;-58
2023/04/18 00:28:35;;;;;;;;;;;13.70;45.70;;;;;;5051896;28;20269;-58
2023/04/18 00:31:01;;;;;;;;;;;13.70;45.60;;;;;;5051533;28;19913;-59
2023/04/18 00:33:26;;;;;;;;;;;13.70;45.60;;;;;;5051904;28;19913;-58
2023/04/18 00:35:52;;;;;;;;;;;13.80;45.60;;;;;;5039394;28;20293;-58
2023/04/18 00:38:17;;;;;;;;;;;13.80;45.60;;;;;;5031174;28;19932;-59
2023/04/18 00:40:43;;;;;;;;;;;13.80;45.60;;;;;;5031515;28;19952;-59
2023/04/18 00:43:11;;;;;;;;;;;13.80;45.50;;;;;;5032299;28;19913;-59
2023/04/18 00:45:36;;;;;;;;;;;13.80;45.50;;;;;;5030843;28;20246;-61
2023/04/18 00:48:02;;;;;;;;;;;13.80;45.50;;;;;;5030935;28;19913;-59
2023/04/18 00:50:27;;;;;;;;;;;13.80;45.50;;;;;;5031229;28;19913;-58
2023/04/18 00:52:53;;;;;;;;;;;13.80;45.50;;;;;;5031399;28;19913;-58
2023/04/18 00:55:19;;;;;;;;;;;13.80;45.60;;;;;;5031469;28;19918;-59
2023/04/18 00:57:44;;;;;;;;;;;13.80;45.60;;;;;;5031705;28;19923;-59
2023/04/18 01:00:11;;;;;;;;;;;13.80;45.50;;;;;;5031437;28;20007;-59
2023/04/18 01:02:38;;;;;;;;;;;13.80;45.50;;;;;;5031739;28;19916;-58
2023/04/18 01:05:04;;;;;;;;;;;13.90;45.40;;;;;;5030403;28;19918;-59
2023/04/18 01:07:36;;;;;;;;;;;13.80;45.40;;;;;;5031591;28;20000;-59
2023/04/18 01:10:02;;;;;;;;;;;13.90;45.40;;;;;;5030894;28;20395;-58
2023/04/18 01:12:27;;;;;;;;;;;13.90;45.40;;;;;;5031002;28;19913;-58
2023/04/18 01:14:52;;;;;;;;;;;13.90;45.30;;;;;;5031092;28;19917;-59
2023/04/18 01:17:18;;;;;;;;;;;13.90;45.30;;;;;;5031042;28;19968;-58
2023/04/18 01:19:45;;;;;;;;;;;13.90;45.30;;;;;;5031112;28;20297;-58
2023/04/18 01:22:12;;;;;;;;;;;14.00;45.30;;;;;;5031176;28;19942;-58
2023/04/18 01:24:38;;;;;;;;;;;14.00;45.20;;;;;;5029606;28;19913;-59
2023/04/18 01:27:03;;;;;;;;;;;14.00;45.20;;;;;;5042801;28;19939;-58
2023/04/18 01:29:29;;;;;;;;;;;14.00;45.30;;;;;;5050787;28;19948;-59
2023/04/18 01:31:54;;;;;;;;;;;14.00;45.30;;;;;;5050984;28;20371;-59
2023/04/18 01:34:20;;;;;;;;;;;14.00;45.20;;;;;;5051110;28;19917;-60
2023/04/18 01:36:45;;;;;;;;;;;14.00;45.20;;;;;;5031744;28;19913;-59
2023/04/18 01:39:11;;;;;;;;;;;14.00;45.20;;;;;;5031024;28;19921;-59
2023/04/18 01:41:37;;;;;;;;;;;14.00;45.30;;;;;;5034039;28;19913;-59
2023/04/18 01:44:02;;;;;;;;;;;14.00;45.30;;;;;;5034800;28;19917;-59
2023/04/18 01:46:28;;;;;;;;;;;14.00;45.30;;;;;;5034960;28;19914;-58
2023/04/18 01:48:53;;;;;;;;;;;14.00;45.30;;;;;;5034205;28;20291;-58
2023/04/18 01:51:19;;;;;;;;;;;14.00;45.30;;;;;;5034543;28;19913;-58
2023/04/18 01:53:44;;;;;;;;;;;14.00;45.40;;;;;;5033939;28;19917;-59
2023/04/18 01:56:10;;;;;;;;;;;14.00;45.50;;;;;;5034600;28;20012;-58
2023/04/18 01:58:36;;;;;;;;;;;14.00;45.50;;;;;;5034243;28;20016;-58
2023/04/18 02:01:01;;;;;;;;;;;14.00;45.50;;;;;;5034497;28;19909;-58
2023/04/18 02:03:27;;;;;;;;;;;14.00;45.50;;;;;;5034402;28;20406;-62
2023/04/18 02:05:52;;;;;;;;;;;14.10;45.60;;;;;;5033667;28;20304;-58
2023/04/18 02:08:18;;;;;;;;;;;14.00;45.50;;;;;;5034302;28;20396;-58
2023/04/18 02:10:43;;;;;;;;;;;14.00;45.60;;;;;;5034386;28;19931;-59
2023/04/18 02:13:08;;;;;;;;;;;14.00;45.70;;;;;;5034664;28;19913;-58
2023/04/18 02:15:34;;;;;;;;;;;14.00;45.70;;;;;;5034213;28;20451;-58
2023/04/18 02:18:00;;;;;;;;;;;14.00;45.70;;;;;;5034108;28;19970;-58
2023/04/18 02:20:26;;;;;;;;;;;14.00;45.80;;;;;;5033718;28;19924;-58
2023/04/18 02:22:51;;;;;;;;;;;14.00;45.80;;;;;;5033963;28;19971;-58
2023/04/18 02:25:17;;;;;;;;;;;14.00;46.00;;;;;;5034076;28;19921;-58
2023/04/18 02:27:43;;;;;;;;;;;14.00;46.00;;;;;;5034384;28;19966;-57
2023/04/18 02:30:08;;;;;;;;;;;14.00;46.00;;;;;;5033347;28;20080;-57
2023/04/18 02:32:34;;;;;;;;;;;14.00;46.00;;;;;;5033691;28;20288;-58
2023/04/18 02:34:59;;;;;;;;;;;14.00;46.00;;;;;;5037702;28;19965;-57
2023/04/18 02:37:25;;;;;;;;;;;14.00;46.00;;;;;;5041612;28;20016;-57
2023/04/18 02:39:50;;;;;;;;;;;14.00;46.10;;;;;;5033420;28;19921;-61
2023/04/18 02:42:16;;;;;;;;;;;14.00;46.10;;;;;;5033662;28;19913;-57
2023/04/18 02:44:41;;;;;;;;;;;14.00;46.20;;;;;;5033297;28;20293;-58
2023/04/18 02:47:06;;;;;;;;;;;13.90;46.30;;;;;;5033737;28;20377;-57
2023/04/18 02:49:32;;;;;;;;;;;13.90;46.30;;;;;;5033188;28;19917;-57
2023/04/18 02:51:57;;;;;;;;;;;13.90;46.40;;;;;;5032010;28;19913;-57
2023/04/18 02:54:23;;;;;;;;;;;14.00;46.50;;;;;;5033629;28;19940;-58
2023/04/18 02:56:50;;;;;;;;;;;13.90;46.50;;;;;;5033757;28;19956;-57
2023/04/18 02:59:16;;;;;;;;;;;13.90;46.60;;;;;;5033847;28;20288;-57
2023/04/18 03:01:41;;;;;;;;;;;13.90;46.70;;;;;;5033710;28;19913;-58
2023/04/18 03:04:06;;;;;;;;;;;13.90;46.80;;;;;;5033867;28;20373;-57
2023/04/18 03:06:32;;;;;;;;;;;13.90;46.80;;;;;;5033609;28;19909;-58
2023/04/18 03:08:57;;;;;;;;;;;13.80;46.90;;;;;;5032960;28;19918;-57
2023/04/18 03:11:23;;;;;;;;;;;13.80;47.00;;;;;;5033529;28;19916;-58
2023/04/18 03:13:48;;;;;;;;;;;13.90;47.00;;;;;;5033381;28;19917;-58
2023/04/18 03:16:14;;;;;;;;;;;13.80;47.20;;;;;;5032031;28;19948;-58
2023/04/18 03:18:39;;;;;;;;;;;13.70;47.30;;;;;;5032735;28;19925;-59
2023/04/18 03:21:06;;;;;;;;;;;13.70;47.40;;;;;;5032235;28;19913;-58
2023/04/18 03:23:31;;;;;;;;;;;13.70;47.40;;;;;;5033020;28;19924;-58
2023/04/18 03:25:56;;;;;;;;;;;13.60;47.60;;;;;;5035511;28;19910;-58
2023/04/18 03:28:22;;;;;;;;;;;13.40;48.00;;;;;;5053270;28;20003;-57
2023/04/18 03:30:48;;;;;;;;;;;13.50;47.80;;;;;;5038077;28;19967;-57
2023/04/18 03:33:15;;;;;;;;;;;13.60;47.80;;;;;;5021531;28;19918;-57
2023/04/18 03:35:41;;;;;;;;;;;13.60;47.90;;;;;;5041579;28;19913;-58
2023/04/18 03:38:06;;;;;;;;;;;13.50;48.00;;;;;;5048576;28;20015;-58
2023/04/18 03:40:32;;;;;;;;;;;13.50;48.10;;;;;;5032716;28;20397;-58
2023/04/18 03:42:58;;;;;;;;;;;13.50;48.20;;;;;;5033280;28;19920;-60
2023/04/18 03:45:24;;;;;;;;;;;13.50;48.20;;;;;;5032346;28;20435;-63
2023/04/18 03:47:49;;;;;;;;;;;13.50;48.30;;;;;;5032461;28;19936;-58
2023/04/18 03:50:15;;;;;;;;;;;13.50;48.40;;;;;;5034472;28;19921;-58
2023/04/18 03:52:40;;;;;;;;;;;13.40;48.80;;;;;;5032928;28;19916;-57
2023/04/18 03:55:06;;;;;;;;;;;13.50;48.60;;;;;;5032536;28;20431;-58
2023/04/18 03:57:31;;;;;;;;;;;13.50;48.60;;;;;;5031759;28;19975;-58
2023/04/18 03:59:57;;;;;;;;;;;13.50;48.70;;;;;;5032102;28;19917;-58
2023/04/18 04:02:22;;;;;;;;;;;13.50;49.00;;;;;;5031880;28;19987;-60
2023/04/18 04:04:48;;;;;;;;;;;13.40;49.10;;;;;;5031723;28;19917;-57
2023/04/18 04:07:13;;;;;;;;;;;13.40;49.20;;;;;;5031946;28;19913;-58
2023/04/18 04:09:39;;;;;;;;;;;13.30;49.40;;;;;;5032064;28;19925;-57
2023/04/18 04:12:04;;;;;;;;;;;13.30;49.40;;;;;;5031722;28;19967;-58
2023/04/18 04:14:30;;;;;;;;;;;13.30;49.60;;;;;;5031888;28;19918;-61
2023/04/18 04:16:55;;;;;;;;;;;13.40;49.50;;;;;;5031832;28;20000;-59
2023/04/18 04:19:21;;;;;;;;;;;13.40;49.40;;;;;;5031576;28;19917;-59
2023/04/18 04:21:46;;;;;;;;;;;13.40;49.50;;;;;;5031454;28;20378;-61
2023/04/18 04:24:12;;;;;;;;;;;13.40;49.40;;;;;;5031567;28;19944;-61
2023/04/18 04:26:37;;;;;;;;;;;13.40;49.50;;;;;;5035009;28;19912;-61
2023/04/18 04:29:03;;;;;;;;;;;13.50;49.50;;;;;;5046229;28;19948;-61
2023/04/18 04:31:30;;;;;;;;;;;13.40;49.50;;;;;;5031282;28;19917;-60
2023/04/18 04:33:56;;;;;;;;;;;13.40;49.50;;;;;;5031369;28;19924;-61
2023/04/18 04:36:23;;;;;;;;;;;13.50;49.40;;;;;;5037833;28;20361;-60
2023/04/18 04:38:48;;;;;;;;;;;13.50;49.40;;;;;;5032002;28;19921;-61
2023/04/18 04:41:14;;;;;;;;;;;13.50;49.50;;;;;;5031160;28;19917;-61
2023/04/18 04:43:40;;;;;;;;;;;13.50;49.40;;;;;;5031397;28;19971;-61
2023/04/18 04:46:06;;;;;;;;;;;13.50;49.40;;;;;;5031744;28;19909;-62
2023/04/18 04:48:32;;;;;;;;;;;13.50;49.50;;;;;;5031795;28;20427;-61
2023/04/18 04:50:58;;;;;;;;;;;13.50;49.60;;;;;;5030848;28;19913;-62
2023/04/18 04:53:25;;;;;;;;;;;13.40;49.80;;;;;;5031845;28;19923;-61
2023/04/18 04:55:50;;;;;;;;;;;13.40;50.00;;;;;;5031535;28;19959;-64
2023/04/18 04:58:16;;;;;;;;;;;13.40;50.10;;;;;;5031270;28;19921;-61
2023/04/18 05:00:41;;;;;;;;;;;13.40;50.30;;;;;;5030948;28;19953;-61
2023/04/18 05:03:07;;;;;;;;;;;13.30;50.60;;;;;;5031348;28;19913;-61
2023/04/18 05:05:32;;;;;;;;;;;13.30;50.70;;;;;;5030644;28;19921;-62
2023/04/18 05:07:58;;;;;;;;;;;13.30;50.80;;;;;;5031223;28;19939;-61
2023/04/18 05:10:23;;;;;;;;;;;13.30;51.10;;;;;;5030909;28;19913;-61
2023/04/18 05:12:49;;;;;;;;;;;13.30;51.30;;;;;;5029081;28;19917;-61
2023/04/18 05:15:15;;;;;;;;;;;13.30;51.40;;;;;;5029372;28;19927;-61
2023/04/18 05:17:41;;;;;;;;;;;13.30;51.30;;;;;;5016777;28;20477;-61
2023/04/18 05:20:07;;;;;;;;;;;13.30;51.30;;;;;;5020255;28;19917;-61
2023/04/18 05:22:32;;;;;;;;;;;13.30;51.50;;;;;;5023275;28;19921;-61
2023/04/18 05:24:58;;;;;;;;;;;13.30;51.50;;;;;;5029529;28;19918;-61
2023/04/18 05:27:23;;;;;;;;;;;13.30;51.50;;;;;;5029552;28;20012;-61
2023/04/18 05:29:49;;;;;;;;;;;13.40;51.40;;;;;;5031116;28;19917;-61
2023/04/18 05:32:14;;;;;;;;;;;13.30;51.50;;;;;;5031388;28;19914;-60
2023/04/18 05:34:41;;;;;;;;;;;13.40;51.50;;;;;;5033011;28;20357;-60
2023/04/18 05:37:06;;;;;;;;;;;13.40;51.50;;;;;;5050636;28;20323;-61
2023/04/18 05:39:32;;;;;;;;;;;13.40;51.60;;;;;;5020097;28;19926;-61
2023/04/18 05:41:57;;;;;;;;;;;13.40;51.50;;;;;;5021753;28;19913;-61
2023/04/18 05:44:23;;;;;;;;;;;13.40;51.50;;;;;;5031257;28;19914;-63
2023/04/18 05:46:50;;;;;;;;;;;13.40;51.40;;;;;;5030941;28;20008;-61
2023/04/18 05:49:17;;;;;;;;;;;13.50;51.50;;;;;;5030859;28;19924;-60
2023/04/18 05:51:42;;;;;;;;;;;13.40;51.60;;;;;;5031042;28;20379;-61
2023/04/18 05:54:08;;;;;;;;;;;13.40;51.70;;;;;;5030747;28;19913;-61
2023/04/18 05:56:33;;;;;;;;;;;13.40;51.80;;;;;;5031071;28;19920;-62
2023/04/18 05:58:58;;;;;;;;;;;13.40;51.90;;;;;;5030933;28;19921;-61
2023/04/18 06:01:24;;;;;;;;;;;13.40;52.00;;;;;;5036164;28;20909;-62
2023/04/18 06:03:49;;;;;;;;;;;13.40;52.00;;;;;;5036316;28;20392;-62
2023/04/18 06:06:15;;;;;;;;;;;13.50;51.90;;;;;;5026669;28;21896;-61
2023/04/18 06:08:40;;;;;;;;;;;13.50;51.80;;;;;;5029762;28;19933;-61
2023/04/18 06:11:07;;;;;;;;;;;13.50;51.80;;;;;;5028313;28;19909;-61
2023/04/18 06:13:33;;;;;;;;;;;13.60;51.80;;;;;;5029946;28;20380;-61
2023/04/18 06:15:59;;;;;;;;;;;13.70;51.70;;;;;;5029281;28;19917;-61
2023/04/18 06:18:24;;;;;;;;;;;13.60;51.70;;;;;;5027189;28;19921;-61
2023/04/18 06:20:50;;;;;;;;;;;13.60;51.70;;;;;;5019292;28;20357;-61
2023/04/18 06:23:15;;;;;;;;;;;13.70;51.70;;;;;;5015775;28;19921;-60
2023/04/18 06:25:41;;;;;;;;;;;13.70;51.60;;;;;;5029291;28;19917;-60
2023/04/18 06:28:06;;;;;;;;;;;13.70;51.70;;;;;;5029791;28;19913;-60
2023/04/18 06:30:32;;;;;;;;;;;13.70;51.60;;;;;;5033861;28;20450;-60
2023/04/18 06:32:57;;;;;;;;;;;13.80;51.60;;;;;;5034170;28;19913;-66
2023/04/18 06:35:23;;;;;;;;;;;13.80;51.60;;;;;;5036246;28;19936;-60
2023/04/18 06:37:48;;;;;;;;;;;13.70;51.70;;;;;;5034177;28;19917;-60
2023/04/18 06:40:14;;;;;;;;;;;13.70;51.80;;;;;;5022193;28;19922;-60
2023/04/18 06:42:40;;;;;;;;;;;13.70;52.10;;;;;;5014540;28;19925;-60
2023/04/18 06:45:06;;;;;;;;;;;13.70;52.00;;;;;;5027642;28;19925;-61
2023/04/18 06:47:31;;;;;;;;;;;13.50;52.20;;;;;;5033504;28;19928;-61
2023/04/18 06:49:57;;;;;;;;;;;13.60;52.30;;;;;;5031872;28;19917;-61
2023/04/18 06:52:22;;;;;;;;;;;13.60;52.20;;;;;;5032126;28;19913;-61
2023/04/18 06:54:48;;;;;;;;;;;13.60;52.30;;;;;;5032203;28;20187;-61
2023/04/18 06:57:13;;;;;;;;;;;13.60;52.30;;;;;;5033573;28;20388;-61
2023/04/18 06:59:40;;;;;;;;;;;13.70;52.40;;;;;;5032685;28;20296;-61
2023/04/18 07:02:06;;;;;;;;;;;13.70;52.40;;;;;;5033503;28;19913;-61
2023/04/18 07:04:31;;;;;;;;;;;13.80;52.40;;;;;;5032402;28;20320;-61
2023/04/18 07:06:57;;;;;;;;;;;13.80;52.30;;;;;;5033598;28;19980;-64
2023/04/18 07:09:22;;;;;;;;;;;13.80;52.20;;;;;;5030382;28;19921;-61
2023/04/18 07:11:49;;;;;;;;;;;13.90;52.00;;;;;;5031998;28;20277;-69
2023/04/18 07:14:15;;;;;;;;;;;13.90;52.00;;;;;;5029932;28;19924;-61
2023/04/18 07:16:40;;;;;;;;;;;13.90;52.00;;;;;;5022968;28;19913;-61
2023/04/18 07:19:06;;;;;;;;;;;14.00;51.90;;;;;;5032992;28;19967;-61
2023/04/18 07:21:31;;;;;;;;;;;14.00;51.90;;;;;;5030739;28;19924;-61
2023/04/18 07:23:57;;;;;;;;;;;14.10;52.00;;;;;;5033261;28;19948;-61
2023/04/18 07:26:22;;;;;;;;;;;14.30;51.90;;;;;;5024868;28;19913;-61
2023/04/18 07:28:48;;;;;;;;;;;14.40;51.70;;;;;;5030780;28;19925;-61
2023/04/18 07:31:15;;;;;;;;;;;14.60;51.40;;;;;;5021063;28;19910;-64
2023/04/18 07:33:42;;;;;;;;;;;14.70;51.00;;;;;;5034339;28;19917;-60
2023/04/18 07:36:07;;;;;;;;;;;14.80;50.60;;;;;;5029438;28;19959;-60
2023/04/18 07:38:34;;;;;;;;;;;14.90;50.20;;;;;;5029848;28;19925;-61
2023/04/18 07:41:00;;;;;;;;;;;14.90;50.20;;;;;;5031971;28;20339;-61
2023/04/18 07:43:26;;;;;;;;;;;15.00;49.80;;;;;;5031882;28;19988;-61
2023/04/18 07:45:51;;;;;;;;;;;15.00;49.80;;;;;;5032402;28;19913;-61
2023/04/18 07:48:17;;;;;;;;;;;15.00;49.70;;;;;;5031816;28;20023;-60
2023/04/18 07:50:42;;;;;;;;;;;15.10;49.70;;;;;;5031250;28;19913;-61
2023/04/18 07:53:08;;;;;;;;;;;15.20;49.10;;;;;;5032784;28;20015;-61
2023/04/18 07:55:33;;;;;;;;;;;15.30;49.00;;;;;;5021030;28;20274;-61
2023/04/18 07:57:59;;;;;;;;;;;15.30;48.90;;;;;;5012996;28;19995;-61
2023/04/18 08:00:25;;;;;;;;;;;15.30;48.60;;;;;;5024796;28;19963;-61
2023/04/18 08:02:50;;;;;;;;;;;15.30;48.50;;;;;;5032611;28;19952;-61
2023/04/18 08:05:17;;;;;;;;;;;15.30;48.60;;;;;;5030922;28;20308;-61
2023/04/18 08:07:42;;;;;;;;;;;15.30;48.70;;;;;;5021634;28;19918;-61
2023/04/18 08:10:08;;;;;;;;;;;15.30;48.80;;;;;;5014829;28;20385;-61
2023/04/18 08:12:35;;;;;;;;;;;15.30;48.90;;;;;;5012551;28;19914;-60
2023/04/18 08:15:01;;;;;;;;;;;15.50;48.70;;;;;;5020334;28;19917;-61
2023/04/18 08:17:26;;;;;;;;;;;15.60;48.40;;;;;;5029919;28;20343;-64
2023/04/18 08:19:51;;;;;;;;;;;15.70;48.10;;;;;;5031995;28;19959;-61
2023/04/18 08:22:17;;;;;;;;;;;15.80;47.90;;;;;;5021406;28;20384;-61
2023/04/18 08:24:42;;;;;;;;;;;15.80;47.90;;;;;;5019445;28;20407;-61
2023/04/18 08:27:08;;;;;;;;;;;15.90;47.60;;;;;;5029784;28;20352;-61
2023/04/18 08:29:33;;;;;;;;;;;16.00;47.70;;;;;;5026900;28;19959;-61
2023/04/18 08:31:59;;;;;;;;;;;16.00;47.70;;;;;;5023322;28;19917;-61
2023/04/18 08:34:24;;;;;;;;;;;16.30;47.40;;;;;;5011846;28;19920;-61
2023/04/18 08:36:50;;;;;;;;;;;16.60;47.60;;;;;;5043073;28;19913;-60
2023/04/18 08:39:15;;;;;;;;;;;17.00;47.30;;;;;;5027437;28;19929;-61
2023/04/18 08:41:41;;;;;;;;;;;17.40;46.70;;;;;;5011700;28;19925;-61
2023/04/18 08:44:07;;;;;;;;;;;17.70;45.10;;;;;;5013207;28;20404;-61
2023/04/18 08:46:34;;;;;;;;;;;17.80;44.00;;;;;;5031427;28;19982;-62
2023/04/18 08:49:02;;;;;;;;;;;18.20;43.60;;;;;;5031244;28;19917;-61
2023/04/18 08:51:35;;;;;;;;;;;18.60;43.10;;;;;;5029948;28;19913;-62
2023/04/18 08:54:01;;;;;;;;;;;19.00;42.10;;;;;;5030835;28;19913;-62
2023/04/18 08:56:27;;;;;;;;;;;19.00;40.70;;;;;;5030485;28;19924;-61
2023/04/18 08:58:53;;;;;;;;;;;19.00;40.80;;;;;;5028823;28;19933;-60
2023/04/18 09:01:20;;;;;;;;;;;19.10;40.40;;;;;;5044626;28;19909;-62
2023/04/18 09:03:45;;;;;;;;;;;19.00;39.90;;;;;;5051213;28;20412;-61
2023/04/18 09:06:12;;;;;;;;;;;18.80;39.80;;;;;;5029710;28;20004;-60
2023/04/18 09:08:39;;;;;;;;;;;18.70;40.20;;;;;;5031259;28;20004;-60
2023/04/18 09:11:24;;;;;;;;;;;18.50;40.70;;;;;;5025535;28;20008;-60
2023/04/18 09:13:50;;;;;;;;;;;18.40;40.70;;;;;;5011127;28;19921;-60
2023/04/18 09:16:18;;;;;;;;;;;18.20;41.10;;;;;;5029967;28;19937;-62
2023/04/18 09:19:03;;;;;;;;;;;17.90;41.30;;;;;;5029880;28;20019;-60
2023/04/18 09:21:29;;;;;;;;;;;17.70;41.70;;;;;;5021667;28;19920;-60
2023/04/18 09:24:10;;;;;;;;;;;17.70;42.20;;;;;;5030737;28;19992;-60
2023/04/18 09:26:38;;;;;;;;;;;17.80;42.30;;;;;;5020879;28;20004;-61
2023/04/18 09:29:04;;;;;;;;;;;17.80;41.90;;;;;;5017518;28;20020;-61
2023/04/18 09:31:29;;;;;;;;;;;18.00;41.80;;;;;;5030828;28;20008;-61
2023/04/18 09:33:55;;;;;;;;;;;18.10;41.90;;;;;;5029801;28;19917;-61
2023/04/18 09:36:29;;;;;;;;;;;18.10;41.60;;;;;;5046254;28;19913;-62
2023/04/18 09:38:55;;;;;;;;;;;18.20;41.60;;;;;;5043291;28;19921;-60
2023/04/18 09:41:21;;;;;;;;;;;18.30;41.90;;;;;;5010885;28;19914;-61
2023/04/18 09:43:47;;;;;;;;;;;18.60;41.70;;;;;;5010711;28;19921;-61
2023/04/18 09:46:13;;;;;;;;;;;18.80;41.00;;;;;;5011209;28;19964;-60
2023/04/18 09:48:39;;;;;;;;;;;19.10;40.60;;;;;;5011117;28;19925;-61
2023/04/18 09:51:05;;;;;;;;;;;19.30;40.10;;;;;;5010183;28;19921;-61
2023/04/18 09:53:31;;;;;;;;;;;19.70;39.70;;;;;;5011411;28;20379;-61
2023/04/18 09:55:57;;;;;;;;;;;19.90;38.90;;;;;;5012600;28;19933;-61
2023/04/18 09:58:24;;;;;;;;;;;20.20;38.60;;;;;;5014647;28;19921;-61
2023/04/18 10:00:51;;;;;;;;;;;20.30;38.20;;;;;;5030719;28;20254;-61
2023/04/18 10:03:17;;;;;;;;;;;20.50;38.00;;;;;;5033187;28;19924;-61
2023/04/18 10:05:44;;;;;;;;;;;20.70;37.40;;;;;;5034788;28;19910;-61
2023/04/18 10:08:11;;;;;;;;;;;20.70;37.10;;;;;;5033974;28;20046;-61
2023/04/18 10:10:37;;;;;;;;;;;20.80;36.70;;;;;;5032707;28;20381;-61
2023/04/18 10:13:04;;;;;;;;;;;20.80;36.60;;;;;;5032891;28;19917;-61
2023/04/18 10:15:29;;;;;;;;;;;20.80;36.20;;;;;;5034253;28;19917;-61
2023/04/18 10:17:56;;;;;;;;;;;20.80;36.50;;;;;;5033258;28;20329;-61
2023/04/18 10:20:27;;;;;;;;;;;20.90;36.20;;;;;;5033828;28;19913;-61
2023/04/18 10:22:53;;;;;;;;;;;20.80;35.80;;;;;;5031131;28;19967;-61
2023/04/18 10:25:45;;;;;;;;;;;20.70;36.00;;;;;;5028788;28;19940;-61
2023/04/18 10:28:11;;;;;;;;;;;20.60;36.20;;;;;;5032899;28;19917;-61
2023/04/18 10:30:39;;;;;;;;;;;20.50;36.30;;;;;;5025726;28;19940;-61
2023/04/18 10:33:20;;;;;;;;;;;20.50;36.10;;;;;;5014324;28;19979;-61
2023/04/18 10:36:12;;;;;;;;;;;20.40;36.30;;;;;;5026544;28;19917;-61
2023/04/18 10:38:44;;;;;;;;;;;20.50;36.40;;;;;;5033208;28;19921;-61
2023/04/18 10:41:15;;;;;;;;;;;20.80;36.30;;;;;;5021266;28;20280;-61
2023/04/18 10:43:59;;;;;;;;;;;20.90;36.10;;;;;;5033596;28;19988;-61
2023/04/18 10:46:24;;;;;;;;;;;20.90;36.10;;;;;;5032783;28;19913;-61
2023/04/18 10:49:10;;;;;;;;;;;21.60;36.10;;;;;;5034131;28;20027;-62
2023/04/18 10:51:35;;;;;;;;;;;22.40;34.70;;;;;;5014566;28;19914;-61
2023/04/18 10:54:01;;;;;;;;;;;23.00;33.40;;;;;;5013313;28;19913;-61
2023/04/18 10:56:27;;;;;;;;;;;23.70;32.30;;;;;;5033142;28;19967;-61
2023/04/18 10:58:53;;;;;;;;;;;24.10;31.50;;;;;;5032564;28;20016;-62
2023/04/18 11:01:26;;;;;;;;;;;23.90;30.70;;;;;;5033235;28;19964;-62
2023/04/18 11:03:53;;;;;;;;;;;23.50;30.80;;;;;;5032870;28;20638;-60
2023/04/18 11:06:20;;;;;;;;;;;23.30;31.80;;;;;;5017454;28;20372;-60
2023/04/18 11:08:45;;;;;;;;;;;23.40;31.60;;;;;;5017387;28;19925;-61
2023/04/18 11:11:11;;;;;;;;;;;23.40;31.30;;;;;;5015844;28;19936;-64
2023/04/18 11:13:51;;;;;;;;;;;23.70;31.70;;;;;;5011557;28;19922;-61
2023/04/18 11:16:27;;;;;;;;;;;24.20;30.40;;;;;;5013766;28;20321;-61
2023/04/18 11:18:53;;;;;;;;;;;24.30;30.10;;;;;;5017432;28;19932;-60
2023/04/18 11:21:18;;;;;;;;;;;24.40;29.60;;;;;;5035145;28;20384;-61
2023/04/18 11:23:44;;;;;;;;;;;24.60;29.30;;;;;;5012121;28;19917;-61
2023/04/18 11:26:11;;;;;;;;;;;24.80;28.90;;;;;;5029508;28;19928;-61
2023/04/18 11:28:37;;;;;;;;;;;24.80;29.10;;;;;;5028911;28;19929;-60
2023/04/18 11:31:02;;;;;;;;;;;24.50;29.30;;;;;;5031388;28;19909;-61
2023/04/18 11:33:28;;;;;;;;;;;24.20;29.90;;;;;;5030287;28;19917;-60
2023/04/18 11:35:55;;;;;;;;;;;24.20;30.00;;;;;;5031607;28;20301;-61
2023/04/18 11:38:26;;;;;;;;;;;24.80;29.30;;;;;;5029212;28;19917;-61
2023/04/18 11:40:51;;;;;;;;;;;25.10;28.70;;;;;;5013680;28;20017;-61
2023/04/18 11:43:21;;;;;;;;;;;25.40;28.10;;;;;;5017198;28;20004;-64
2023/04/18 11:45:51;;;;;;;;;;;25.30;27.70;;;;;;5031139;28;19916;-65
2023/04/18 11:48:16;;;;;;;;;;;25.30;27.60;;;;;;5031508;28;19928;-62
2023/04/18 11:50:41;;;;;;;;;;;24.90;28.00;;;;;;5032790;28;19914;-62
2023/04/18 11:53:07;;;;;;;;;;;24.80;28.30;;;;;;5030582;28;20163;-61
2023/04/18 11:55:32;;;;;;;;;;;24.80;28.60;;;;;;5032030;28;20305;-61
2023/04/18 11:57:59;;;;;;;;;;;25.00;28.50;;;;;;5032004;28;19924;-61
2023/04/18 12:00:35;;;;;;;;;;;25.00;28.40;;;;;;5032931;28;20388;-62
2023/04/18 12:03:06;;;;;;;;;;;25.50;28.30;;;;;;5031787;28;19920;-61
2023/04/18 12:05:35;;;;;;;;;;;26.00;27.50;;;;;;5032061;28;19917;-61
2023/04/18 12:08:12;;;;;;;;;;;26.20;27.00;;;;;;5030802;28;20261;-62
2023/04/18 12:10:44;;;;;;;;;;;26.30;26.60;;;;;;5018655;28;20363;-61
2023/04/18 12:13:10;;;;;;;;;;;26.20;26.30;;;;;;5015717;28;20365;-62
2023/04/18 12:15:39;;;;;;;;;;;26.00;26.50;;;;;;5012438;28;19923;-62
2023/04/18 12:18:07;;;;;;;;;;;26.30;26.40;;;;;;5019907;28;19917;-62
2023/04/18 12:20:45;;;;;;;;;;;26.10;26.30;;;;;;5032302;28;19920;-62
2023/04/18 12:23:29;;;;;;;;;;;25.80;26.60;;;;;;5028816;28;19913;-61
2023/04/18 12:26:01;;;;;;;;;;;25.30;27.40;;;;;;5011921;28;19917;-62
2023/04/18 12:28:26;;;;;;;;;;;24.80;27.80;;;;;;5031687;28;20315;-63
2023/04/18 12:30:52;;;;;;;;;;;24.50;28.30;;;;;;5031169;28;20008;-61
2023/04/18 12:33:18;;;;;;;;;;;24.00;28.90;;;;;;5012067;28;20008;-62
2023/04/18 12:35:44;;;;;;;;;;;24.30;29.00;;;;;;5021129;28;19920;-61
2023/04/18 12:38:09;;;;;;;;;;;24.20;28.60;;;;;;5012238;28;20360;-63
2023/04/18 12:40:37;;;;;;;;;;;23.80;29.00;;;;;;5012606;28;20389;-64
2023/04/18 12:43:02;;;;;;;;;;;24.00;29.00;;;;;;5012632;28;19917;-61
2023/04/18 12:45:28;;;;;;;;;;;23.90;28.60;;;;;;5023605;28;19917;-62
2023/04/18 12:47:53;;;;;;;;;;;23.70;29.10;;;;;;5031928;28;20273;-62
2023/04/18 12:50:20;;;;;;;;;;;23.40;29.50;;;;;;5019883;28;19925;-61
2023/04/18 12:52:45;;;;;;;;;;;23.70;29.20;;;;;;5012031;28;19944;-61
2023/04/18 12:55:12;;;;;;;;;;;23.60;29.40;;;;;;5021547;28;19917;-63
2023/04/18 12:57:37;;;;;;;;;;;23.40;29.70;;;;;;5031281;28;19964;-62
2023/04/18 13:00:10;;;;;;;;;;;23.40;29.70;;;;;;5029684;28;19956;-62
2023/04/18 13:02:42;;;;;;;;;;;23.20;29.80;;;;;;5026056;28;20006;-61
2023/04/18 13:05:09;;;;;;;;;;;22.80;30.50;;;;;;5028633;28;19924;-61
2023/04/18 13:07:36;;;;;;;;;;;22.60;30.90;;;;;;5031343;28;20011;-61
2023/04/18 13:10:02;;;;;;;;;;;22.30;31.10;;;;;;5030237;28;19964;-61
2023/04/18 13:12:29;;;;;;;;;;;22.30;31.50;;;;;;5031738;28;19949;-61
2023/04/18 13:14:57;;;;;;;;;;;22.50;31.40;;;;;;5013400;28;19924;-61
2023/04/18 13:17:23;;;;;;;;;;;22.40;31.20;;;;;;5011727;28;20372;-61
2023/04/18 13:19:48;;;;;;;;;;;22.90;31.30;;;;;;5028958;28;20007;-62
2023/04/18 13:22:14;;;;;;;;;;;23.50;30.30;;;;;;5028769;28;20345;-63
2023/04/18 13:24:39;;;;;;;;;;;23.80;29.80;;;;;;5030311;28;20001;-62
2023/04/18 13:27:09;;;;;;;;;;;23.90;29.70;;;;;;5030746;28;20271;-61
2023/04/18 13:29:35;;;;;;;;;;;23.80;29.30;;;;;;5031225;28;19947;-61
2023/04/18 13:32:01;;;;;;;;;;;23.40;29.70;;;;;;5030874;28;19944;-62
2023/04/18 13:34:26;;;;;;;;;;;23.00;30.00;;;;;;5029106;28;19956;-62
2023/04/18 13:36:51;;;;;;;;;;;23.10;30.10;;;;;;5038926;28;19948;-61
2023/04/18 13:39:17;;;;;;;;;;;22.70;30.10;;;;;;5033202;28;20427;-62
2023/04/18 13:41:42;;;;;;;;;;;22.30;30.70;;;;;;5035246;28;20062;-62
2023/04/18 13:44:08;;;;;;;;;;;22.50;31.00;;;;;;5033157;28;19918;-61
2023/04/18 13:46:33;;;;;;;;;;;22.80;30.70;;;;;;5021960;28;19918;-62
2023/04/18 13:48:58;;;;;;;;;;;22.80;30.60;;;;;;5034758;28;19913;-61
2023/04/18 13:51:24;;;;;;;;;;;23.00;30.30;;;;;;5034853;28;20008;-61
2023/04/18 13:53:50;;;;;;;;;;;23.10;30.20;;;;;;5036880;28;19921;-62
2023/04/18 13:56:15;;;;;;;;;;;22.80;30.40;;;;;;5034858;28;19921;-64
2023/04/18 13:58:41;;;;;;;;;;;22.50;30.70;;;;;;5033415;28;20359;-61
2023/04/18 14:01:06;;;;;;;;;;;22.20;31.10;;;;;;5033816;28;20284;-61
2023/04/18 14:03:32;;;;;;;;;;;21.90;31.30;;;;;;5020806;28;19997;-61
2023/04/18 14:05:58;;;;;;;;;;;21.40;31.90;;;;;;5014539;28;19917;-62
2023/04/18 14:08:23;;;;;;;;;;;21.20;32.40;;;;;;5020221;28;19929;-60
2023/04/18 14:10:49;;;;;;;;;;;20.90;32.80;;;;;;5029852;28;19940;-61
2023/04/18 14:13:14;;;;;;;;;;;20.50;33.30;;;;;;5035081;28;19913;-61